Helas — C4AZ2 — position and weather

sailwx.info

Track history (hours):
 
Tides and Currents Weather Stations Pressure Air Temp Water Temp Dewpoint Dewpoint Depression Visibility Wind Speed Wind Dir Waves Ship Positions

Helas

Last reported at 2015-Jan-24 11:33 UTC. Time now 2015-Jan-25 16:23 UTC.
Position N 50°27' W 000°24'.

Length 89 m; draft 5.4 m.

Type: Cargo ship. MMSI: 210031000.

Date/timePositionNaut miles runAvg speedWind from/ knotsBaromVisibWave heightAir tempDewpointWater temp
2015-Jan-24 11:33N 50°27' W 000°24'23 7.1
2015-Jan-24 08:22N 50°34' E 000°10'8 9.3
2015-Jan-24 07:33N 50°36' E 000°22'10 9.5
2015-Jan-24 06:33N 50°39' E 000°36'9 8.9
2015-Jan-24 05:33N 50°44' E 000°47'8 7.7
2015-Jan-24 04:33N 50°49' E 000°57'13 4.4
2015-Jan-24 01:33N 50°57' E 001°14'4 4.5
2015-Jan-24 00:33N 50°60' E 001°19'7 6.5
2015-Jan-23 23:33N 51°04' E 001°27'1010.2
2015-Jan-23 22:33N 51°10' E 001°39'1111.5
2015-Jan-23 21:33N 51°19' E 001°51'1110.5
2015-Jan-23 20:33N 51°28' E 001°60'9 9.4
2015-Jan-23 19:33N 51°36' E 002°09'9 8.6
2015-Jan-23 18:32N 51°42' E 002°18'40 7.9
2015-Jan-23 13:26N 52°12' E 003°02'910.2
2015-Jan-23 12:33N 52°16' E 003°15'2210.7
2015-Jan-23 10:29N 52°23' E 003°49'1010.5
2015-Jan-23 09:33N 52°26' E 004°05'9 9.4
2015-Jan-23 08:33N 52°27' E 004°20'9 9.5
2015-Jan-23 07:34N 52°28' E 004°35'1 0.6
2015-Jan-23 06:33N 52°28' E 004°36'0 0.0
2015-Jan-23 05:33N 52°28' E 004°36'0 0.0
2015-Jan-23 04:33N 52°28' E 004°36'0 0.0
2015-Jan-23 03:33N 52°28' E 004°36'0 0.0
2015-Jan-23 02:33N 52°28' E 004°36'0 0.0
2015-Jan-23 01:30N 52°28' E 004°36'0 0.0
2015-Jan-23 00:30N 52°28' E 004°36'0 0.0
2015-Jan-22 23:33N 52°28' E 004°36'0 0.0
2015-Jan-22 22:33N 52°28' E 004°36'0 0.0
2015-Jan-22 21:33N 52°28' E 004°36'0 0.0
2015-Jan-22 20:33N 52°28' E 004°36'0 0.0
2015-Jan-22 19:32N 52°28' E 004°36'0 0.0
2015-Jan-22 18:32N 52°28' E 004°36'0 0.0
2015-Jan-22 17:32N 52°28' E 004°36'0 0.0
2015-Jan-22 16:32N 52°28' E 004°36'0 0.0
2015-Jan-22 15:32N 52°28' E 004°36'0 0.2
2015-Jan-22 14:32N 52°29' E 004°36'0 0.2
2015-Jan-22 13:32N 52°28' E 004°36'0 0.0
2015-Jan-22 12:32N 52°28' E 004°36'0 0.0
2015-Jan-22 11:32N 52°28' E 004°36'0 0.0
2015-Jan-22 10:32N 52°28' E 004°36'0 0.0
2015-Jan-22 09:32N 52°28' E 004°36'0 0.0
2015-Jan-22 08:32N 52°28' E 004°36'0 0.0
2015-Jan-22 07:32N 52°28' E 004°36'0 0.0
2015-Jan-22 06:32N 52°28' E 004°36'0 0.0
2015-Jan-22 05:32N 52°28' E 004°36'0 0.0
2015-Jan-22 04:32N 52°28' E 004°36'0 0.0
2015-Jan-22 03:32N 52°28' E 004°36'0 0.0
2015-Jan-22 02:32N 52°28' E 004°36'0 0.0
2015-Jan-22 01:32N 52°28' E 004°36'0 0.0
2015-Jan-22 00:32N 52°28' E 004°36'0 0.0
2015-Jan-21 23:32N 52°28' E 004°36'0 0.0
2015-Jan-21 22:50N 52°28' E 004°36'0 0.0
2015-Jan-21 22:44N 52°28' E 004°36'0 0.0
2015-Jan-21 22:32N 52°28' E 004°36'0 0.0
2015-Jan-21 21:32N 52°28' E 004°36'0 0.2
2015-Jan-21 20:34N 52°28' E 004°36'1 1.1
2015-Jan-21 19:32N 52°28' E 004°38'0 0.0
2015-Jan-21 18:32N 52°28' E 004°38'0 0.0
2015-Jan-21 17:32N 52°28' E 004°38'0 0.0
2015-Jan-21 16:32N 52°28' E 004°38'0 0.0
2015-Jan-21 15:32N 52°28' E 004°38'0 0.0
2015-Jan-21 14:32N 52°28' E 004°38'0 0.0
2015-Jan-21 13:32N 52°28' E 004°38'0 0.0
2015-Jan-21 12:32N 52°28' E 004°38'0 0.0
2015-Jan-21 11:32N 52°28' E 004°38'0 0.0
2015-Jan-21 10:32N 52°28' E 004°38'0 0.0
2015-Jan-21 09:32N 52°28' E 004°38'0 0.0
2015-Jan-21 08:32N 52°28' E 004°38'0 0.0
2015-Jan-21 07:29N 52°28' E 004°38'0 0.0
2015-Jan-21 06:32N 52°28' E 004°38'0 0.0
2015-Jan-21 05:31N 52°28' E 004°38'0 0.0
2015-Jan-21 04:31N 52°28' E 004°38'0 0.0
2015-Jan-21 03:31N 52°28' E 004°38'0 0.0
2015-Jan-21 02:31N 52°28' E 004°38'0 0.0
2015-Jan-21 01:31N 52°28' E 004°38'0 0.0
2015-Jan-21 00:31N 52°28' E 004°38'0 0.0
2015-Jan-20 23:31N 52°28' E 004°38'0 0.0
2015-Jan-20 22:31N 52°28' E 004°38'0 0.0
2015-Jan-20 21:31N 52°28' E 004°38'0 0.0
2015-Jan-20 20:31N 52°28' E 004°38'0 0.0
2015-Jan-20 19:31N 52°28' E 004°38'0 0.0
2015-Jan-20 18:31N 52°28' E 004°38'0 0.0
2015-Jan-20 17:31N 52°28' E 004°38'0 0.0
2015-Jan-20 16:31N 52°28' E 004°38'0 0.0
2015-Jan-20 15:31N 52°28' E 004°38'0 0.0
2015-Jan-20 14:31N 52°28' E 004°38'0 0.0
2015-Jan-20 13:31N 52°28' E 004°38'0 0.0
2015-Jan-20 12:31N 52°28' E 004°38'0 0.0
2015-Jan-20 11:31N 52°28' E 004°38'0 0.0
2015-Jan-20 10:31N 52°28' E 004°38'0 0.0
2015-Jan-20 09:31N 52°28' E 004°38'0 0.0
2015-Jan-20 08:31N 52°28' E 004°38'0 0.0
2015-Jan-20 07:31N 52°28' E 004°38'0 0.0
2015-Jan-20 06:28N 52°28' E 004°38'0 0.0
2015-Jan-20 05:31N 52°28' E 004°38'0 0.0
2015-Jan-20 04:31N 52°28' E 004°38'0 0.0
2015-Jan-20 03:31N 52°28' E 004°38'0 0.0
2015-Jan-20 02:32N 52°28' E 004°38'0 0.0
2015-Jan-20 01:31N 52°28' E 004°38'0 0.0
2015-Jan-20 00:31N 52°28' E 004°38'0 0.0
2015-Jan-19 23:31N 52°28' E 004°38'0 0.0
2015-Jan-19 22:33N 52°28' E 004°38'0 0.0
2015-Jan-19 21:33N 52°28' E 004°38'0 0.0
2015-Jan-19 20:33N 52°28' E 004°38'0 0.0
2015-Jan-19 19:30N 52°28' E 004°38'0 0.0
2015-Jan-19 18:33N 52°28' E 004°38'0 0.0
2015-Jan-19 17:33N 52°28' E 004°38'0 0.0
2015-Jan-19 16:33N 52°28' E 004°38'0 0.0
2015-Jan-19 15:33N 52°28' E 004°38'0 0.0
2015-Jan-19 14:33N 52°28' E 004°38'0 0.0
2015-Jan-19 13:33N 52°28' E 004°38'0 0.0
2015-Jan-19 12:33N 52°28' E 004°38'0 0.0
2015-Jan-19 11:33N 52°28' E 004°38'0 0.0
2015-Jan-19 10:30N 52°28' E 004°38'0 0.0
2015-Jan-19 09:33N 52°28' E 004°38'0 0.0
2015-Jan-19 08:33N 52°28' E 004°38'0 0.0
2015-Jan-19 07:33N 52°28' E 004°38'12 6.0
2015-Jan-19 05:34N 52°28' E 004°18'9 8.4
2015-Jan-19 04:33N 52°33' E 004°06'52 8.4
2015-Jan-18 22:22N 53°23' E 004°32'6 7.3
2015-Jan-18 21:30N 53°29' E 004°35'7 7.1
2015-Jan-18 20:32N 53°35' E 004°39'9 9.4
2015-Jan-18 19:32N 53°44' E 004°44'1510.3
2015-Jan-18 18:07N 53°58' E 004°51'610.2
2015-Jan-18 17:32N 54°04' E 004°53'244 9.0
2015-Jan-17 14:24N 58°06' E 005°52'5 6.2
2015-Jan-17 13:34N 58°11' E 005°51'8 8.1
2015-Jan-17 12:33N 58°17' E 005°40'7 7.0
2015-Jan-17 11:33N 58°23' E 005°33'7 6.9
2015-Jan-17 10:33N 58°29' E 005°30'15 7.3
2015-Jan-17 08:32N 58°44' E 005°24'8 8.6
2015-Jan-17 07:33N 58°51' E 005°16'8 8.2
2015-Jan-17 06:33N 58°58' E 005°08'5 4.3
2015-Jan-17 05:21N 59°03' E 005°11'4 4.9
2015-Jan-17 04:33N 59°05' E 005°17'6 6.1
2015-Jan-17 03:33N 59°08' E 005°28'8 8.3
2015-Jan-17 02:34N 59°14' E 005°38'9 9.2
2015-Jan-17 01:34N 59°20' E 005°53'13 9.0
2015-Jan-17 00:05N 59°28' E 006°13'2 0.0
2015-Jan-14 22:19N 59°30' E 006°15'7 9.5
2015-Jan-14 21:32N 59°24' E 006°05'1010.6
2015-Jan-14 20:33N 59°18' E 005°49'1111.2
2015-Jan-14 19:33N 59°11' E 005°33'10 9.8
2015-Jan-14 18:33N 59°03' E 005°21'10 9.7
2015-Jan-14 17:33N 58°53' E 005°21'19 9.1
2015-Jan-14 15:28N 58°35' E 005°26'10 5.0
2015-Jan-14 13:30N 58°27' E 005°39'7 7.5
2015-Jan-14 12:33N 58°20' E 005°40'  
Track history (hours):
 
Tides and Currents Weather Stations Pressure Air Temp Water Temp Dewpoint Dewpoint Depression Visibility Wind Speed Wind Dir Waves Ship Positions

Helas

Last reported at 2015-Jan-24 11:33 UTC. Time now 2015-Jan-25 16:23 UTC.
Position N 50°27' W 000°24'.

Length 89 m; draft 5.4 m.

Type: Cargo ship. MMSI: 210031000.

Date/timePositionNaut miles runAvg speedWind from/ knotsBaromVisibWave heightAir tempDewpointWater temp
2015-Jan-24 11:33N 50°27' W 000°24'23 7.1
2015-Jan-24 08:22N 50°34' E 000°10'8 9.3
2015-Jan-24 07:33N 50°36' E 000°22'10 9.5
2015-Jan-24 06:33N 50°39' E 000°36'9 8.9
2015-Jan-24 05:33N 50°44' E 000°47'8 7.7
2015-Jan-24 04:33N 50°49' E 000°57'13 4.4
2015-Jan-24 01:33N 50°57' E 001°14'4 4.5
2015-Jan-24 00:33N 50°60' E 001°19'7 6.5
2015-Jan-23 23:33N 51°04' E 001°27'1010.2
2015-Jan-23 22:33N 51°10' E 001°39'1111.5
2015-Jan-23 21:33N 51°19' E 001°51'1110.5
2015-Jan-23 20:33N 51°28' E 001°60'9 9.4
2015-Jan-23 19:33N 51°36' E 002°09'9 8.6
2015-Jan-23 18:32N 51°42' E 002°18'40 7.9
2015-Jan-23 13:26N 52°12' E 003°02'910.2
2015-Jan-23 12:33N 52°16' E 003°15'2210.7
2015-Jan-23 10:29N 52°23' E 003°49'1010.5
2015-Jan-23 09:33N 52°26' E 004°05'9 9.4
2015-Jan-23 08:33N 52°27' E 004°20'9 9.5
2015-Jan-23 07:34N 52°28' E 004°35'1 0.6
2015-Jan-23 06:33N 52°28' E 004°36'0 0.0
2015-Jan-23 05:33N 52°28' E 004°36'0 0.0
2015-Jan-23 04:33N 52°28' E 004°36'0 0.0
2015-Jan-23 03:33N 52°28' E 004°36'0 0.0
2015-Jan-23 02:33N 52°28' E 004°36'0 0.0
2015-Jan-23 01:30N 52°28' E 004°36'0 0.0
2015-Jan-23 00:30N 52°28' E 004°36'0 0.0
2015-Jan-22 23:33N 52°28' E 004°36'0 0.0
2015-Jan-22 22:33N 52°28' E 004°36'0 0.0
2015-Jan-22 21:33N 52°28' E 004°36'0 0.0
2015-Jan-22 20:33N 52°28' E 004°36'0 0.0
2015-Jan-22 19:32N 52°28' E 004°36'0 0.0
2015-Jan-22 18:32N 52°28' E 004°36'0 0.0
2015-Jan-22 17:32N 52°28' E 004°36'0 0.0
2015-Jan-22 16:32N 52°28' E 004°36'0 0.0
2015-Jan-22 15:32N 52°28' E 004°36'0 0.2
2015-Jan-22 14:32N 52°29' E 004°36'0 0.2
2015-Jan-22 13:32N 52°28' E 004°36'0 0.0
2015-Jan-22 12:32N 52°28' E 004°36'0 0.0
2015-Jan-22 11:32N 52°28' E 004°36'0 0.0
2015-Jan-22 10:32N 52°28' E 004°36'0 0.0
2015-Jan-22 09:32N 52°28' E 004°36'0 0.0
2015-Jan-22 08:32N 52°28' E 004°36'0 0.0
2015-Jan-22 07:32N 52°28' E 004°36'0 0.0
2015-Jan-22 06:32N 52°28' E 004°36'0 0.0
2015-Jan-22 05:32N 52°28' E 004°36'0 0.0
2015-Jan-22 04:32N 52°28' E 004°36'0 0.0
2015-Jan-22 03:32N 52°28' E 004°36'0 0.0
2015-Jan-22 02:32N 52°28' E 004°36'0 0.0
2015-Jan-22 01:32N 52°28' E 004°36'0 0.0
2015-Jan-22 00:32N 52°28' E 004°36'0 0.0
2015-Jan-21 23:32N 52°28' E 004°36'0 0.0
2015-Jan-21 22:50N 52°28' E 004°36'0 0.0
2015-Jan-21 22:44N 52°28' E 004°36'0 0.0
2015-Jan-21 22:32N 52°28' E 004°36'0 0.0
2015-Jan-21 21:32N 52°28' E 004°36'0 0.2
2015-Jan-21 20:34N 52°28' E 004°36'1 1.1
2015-Jan-21 19:32N 52°28' E 004°38'0 0.0
2015-Jan-21 18:32N 52°28' E 004°38'0 0.0
2015-Jan-21 17:32N 52°28' E 004°38'0 0.0
2015-Jan-21 16:32N 52°28' E 004°38'0 0.0
2015-Jan-21 15:32N 52°28' E 004°38'0 0.0
2015-Jan-21 14:32N 52°28' E 004°38'0 0.0
2015-Jan-21 13:32N 52°28' E 004°38'0 0.0
2015-Jan-21 12:32N 52°28' E 004°38'0 0.0
2015-Jan-21 11:32N 52°28' E 004°38'0 0.0
2015-Jan-21 10:32N 52°28' E 004°38'0 0.0
2015-Jan-21 09:32N 52°28' E 004°38'0 0.0
2015-Jan-21 08:32N 52°28' E 004°38'0 0.0
2015-Jan-21 07:29N 52°28' E 004°38'0 0.0
2015-Jan-21 06:32N 52°28' E 004°38'0 0.0
2015-Jan-21 05:31N 52°28' E 004°38'0 0.0
2015-Jan-21 04:31N 52°28' E 004°38'0 0.0
2015-Jan-21 03:31N 52°28' E 004°38'0 0.0
2015-Jan-21 02:31N 52°28' E 004°38'0 0.0
2015-Jan-21 01:31N 52°28' E 004°38'0 0.0
2015-Jan-21 00:31N 52°28' E 004°38'0 0.0
2015-Jan-20 23:31N 52°28' E 004°38'0 0.0
2015-Jan-20 22:31N 52°28' E 004°38'0 0.0
2015-Jan-20 21:31N 52°28' E 004°38'0 0.0
2015-Jan-20 20:31N 52°28' E 004°38'0 0.0
2015-Jan-20 19:31N 52°28' E 004°38'0 0.0
2015-Jan-20 18:31N 52°28' E 004°38'0 0.0
2015-Jan-20 17:31N 52°28' E 004°38'0 0.0
2015-Jan-20 16:31N 52°28' E 004°38'0 0.0
2015-Jan-20 15:31N 52°28' E 004°38'0 0.0
2015-Jan-20 14:31N 52°28' E 004°38'0 0.0
2015-Jan-20 13:31N 52°28' E 004°38'0 0.0
2015-Jan-20 12:31N 52°28' E 004°38'0 0.0
2015-Jan-20 11:31N 52°28' E 004°38'0 0.0
2015-Jan-20 10:31N 52°28' E 004°38'0 0.0
2015-Jan-20 09:31N 52°28' E 004°38'0 0.0
2015-Jan-20 08:31N 52°28' E 004°38'0 0.0
2015-Jan-20 07:31N 52°28' E 004°38'0 0.0
2015-Jan-20 06:28N 52°28' E 004°38'0 0.0
2015-Jan-20 05:31N 52°28' E 004°38'0 0.0
2015-Jan-20 04:31N 52°28' E 004°38'0 0.0
2015-Jan-20 03:31N 52°28' E 004°38'0 0.0
2015-Jan-20 02:32N 52°28' E 004°38'0 0.0
2015-Jan-20 01:31N 52°28' E 004°38'0 0.0
2015-Jan-20 00:31N 52°28' E 004°38'0 0.0
2015-Jan-19 23:31N 52°28' E 004°38'0 0.0
2015-Jan-19 22:33N 52°28' E 004°38'0 0.0
2015-Jan-19 21:33N 52°28' E 004°38'0 0.0
2015-Jan-19 20:33N 52°28' E 004°38'0 0.0
2015-Jan-19 19:30N 52°28' E 004°38'0 0.0
2015-Jan-19 18:33N 52°28' E 004°38'0 0.0
2015-Jan-19 17:33N 52°28' E 004°38'0 0.0
2015-Jan-19 16:33N 52°28' E 004°38'0 0.0
2015-Jan-19 15:33N 52°28' E 004°38'0 0.0
2015-Jan-19 14:33N 52°28' E 004°38'0 0.0
2015-Jan-19 13:33N 52°28' E 004°38'0 0.0
2015-Jan-19 12:33N 52°28' E 004°38'0 0.0
2015-Jan-19 11:33N 52°28' E 004°38'0 0.0
2015-Jan-19 10:30N 52°28' E 004°38'0 0.0
2015-Jan-19 09:33N 52°28' E 004°38'0 0.0
2015-Jan-19 08:33N 52°28' E 004°38'0 0.0
2015-Jan-19 07:33N 52°28' E 004°38'12 6.0
2015-Jan-19 05:34N 52°28' E 004°18'9 8.4
2015-Jan-19 04:33N 52°33' E 004°06'52 8.4
2015-Jan-18 22:22N 53°23' E 004°32'6 7.3
2015-Jan-18 21:30N 53°29' E 004°35'7 7.1
2015-Jan-18 20:32N 53°35' E 004°39'9 9.4
2015-Jan-18 19:32N 53°44' E 004°44'1510.3
2015-Jan-18 18:07N 53°58' E 004°51'610.2
2015-Jan-18 17:32N 54°04' E 004°53'244 9.0
2015-Jan-17 14:24N 58°06' E 005°52'5 6.2
2015-Jan-17 13:34N 58°11' E 005°51'8 8.1
2015-Jan-17 12:33N 58°17' E 005°40'7 7.0
2015-Jan-17 11:33N 58°23' E 005°33'7 6.9
2015-Jan-17 10:33N 58°29' E 005°30'15 7.3
2015-Jan-17 08:32N 58°44' E 005°24'8 8.6
2015-Jan-17 07:33N 58°51' E 005°16'8 8.2
2015-Jan-17 06:33N 58°58' E 005°08'5 4.3
2015-Jan-17 05:21N 59°03' E 005°11'4 4.9
2015-Jan-17 04:33N 59°05' E 005°17'6 6.1
2015-Jan-17 03:33N 59°08' E 005°28'8 8.3
2015-Jan-17 02:34N 59°14' E 005°38'9 9.2
2015-Jan-17 01:34N 59°20' E 005°53'13 9.0
2015-Jan-17 00:05N 59°28' E 006°13'2 0.0
2015-Jan-14 22:19N 59°30' E 006°15'7 9.5
2015-Jan-14 21:32N 59°24' E 006°05'1010.6
2015-Jan-14 20:33N 59°18' E 005°49'1111.2
2015-Jan-14 19:33N 59°11' E 005°33'10 9.8
2015-Jan-14 18:33N 59°03' E 005°21'10 9.7
2015-Jan-14 17:33N 58°53' E 005°21'19 9.1
2015-Jan-14 15:28N 58°35' E 005°26'10 5.0
2015-Jan-14 13:30N 58°27' E 005°39'7 7.5
2015-Jan-14 12:33N 58°20' E 005°40'  

Dump ship's entire track history